Time;durP1;ratioP1;P1;durP2;ratioP2;P2;SDS_P1;SDS_P2;PMS_P1;PMS_P2;Temp;Humidity;BMP_temperature;BMP_pressure;BME280_temperature;BME280_humidity;BME280_pressure;Samples;Min_cycle;Max_cycle;Signal;HPM_P1;HPM_P2
2024/01/27 00:01:40;;;;;;;11.52;3.60;;;4.70;90.00;;;;;;5072330;28;20550;-35
2024/01/27 00:04:05;;;;;;;13.18;3.70;;;4.70;90.00;;;;;;5072342;28;20583;-34
2024/01/27 00:06:31;;;;;;;9.07;3.50;;;4.70;90.00;;;;;;5072147;28;20025;-35
2024/01/27 00:08:57;;;;;;;10.35;3.28;;;4.60;90.30;;;;;;5072137;28;20111;-35
2024/01/27 00:11:24;;;;;;;13.68;4.25;;;4.60;90.10;;;;;;5072083;28;20025;-35
2024/01/27 00:13:50;;;;;;;14.35;4.13;;;4.60;90.00;;;;;;5072081;28;20106;-35
2024/01/27 00:16:15;;;;;;;10.88;3.63;;;4.60;90.10;;;;;;5070696;28;20021;-36
2024/01/27 00:18:41;;;;;;;16.67;3.60;;;4.60;90.10;;;;;;5072302;28;20038;-36
2024/01/27 00:21:08;;;;;;;14.43;3.60;;;4.50;90.10;;;;;;5071889;28;20488;-36
2024/01/27 00:23:34;;;;;;;9.05;3.20;;;4.60;90.20;;;;;;5072274;28;20477;-36
2024/01/27 00:26:00;;;;;;;10.80;3.45;;;4.50;90.20;;;;;;5072350;28;20476;-34
2024/01/27 00:28:26;;;;;;;16.42;3.58;;;4.60;90.20;;;;;;5071978;28;20099;-35
2024/01/27 00:30:52;;;;;;;13.48;3.75;;;4.60;90.20;;;;;;5070604;28;20527;-36
2024/01/27 00:33:17;;;;;;;10.95;3.70;;;4.50;90.20;;;;;;5071994;28;20012;-35
2024/01/27 00:35:43;;;;;;;9.00;3.08;;;4.50;90.20;;;;;;5071571;28;20115;-36
2024/01/27 00:38:09;;;;;;;10.43;3.28;;;4.50;90.50;;;;;;5071774;28;20461;-35
2024/01/27 00:40:35;;;;;;;9.05;2.97;;;4.50;90.30;;;;;;5071478;28;20362;-35
2024/01/27 00:43:02;;;;;;;10.98;3.33;;;4.50;90.30;;;;;;5071914;28;20051;-35
2024/01/27 00:45:29;;;;;;;12.90;3.85;;;4.50;90.30;;;;;;5071685;28;20028;-35
2024/01/27 00:47:56;;;;;;;15.45;2.92;;;4.40;90.30;;;;;;5071858;28;20722;-36
2024/01/27 00:50:22;;;;;;;10.70;3.30;;;4.40;90.30;;;;;;5071580;28;20103;-36
2024/01/27 00:52:48;;;;;;;11.68;3.65;;;4.40;90.40;;;;;;5071619;28;20021;-35
2024/01/27 00:55:14;;;;;;;15.68;3.53;;;4.40;90.40;;;;;;5071620;28;20036;-36
2024/01/27 00:57:39;;;;;;;9.77;3.30;;;4.40;90.40;;;;;;5071424;28;20108;-35
2024/01/27 01:00:06;;;;;;;11.60;3.63;;;4.40;90.40;;;;;;5071460;28;20033;-35
2024/01/27 01:02:32;;;;;;;11.63;3.33;;;4.40;90.40;;;;;;5071086;28;20036;-34
2024/01/27 01:04:58;;;;;;;8.05;3.03;;;4.40;90.40;;;;;;5071491;28;20025;-35
2024/01/27 01:07:23;;;;;;;13.07;3.28;;;4.40;90.40;;;;;;5071480;28;20016;-35
2024/01/27 01:09:49;;;;;;;8.48;3.35;;;4.40;90.40;;;;;;5071556;28;20028;-35
2024/01/27 01:12:15;;;;;;;10.13;3.60;;;4.40;90.40;;;;;;5074118;28;20031;-33
2024/01/27 01:14:41;;;;;;;10.57;3.30;;;4.40;90.40;;;;;;5075569;28;20076;-35
2024/01/27 01:17:07;;;;;;;14.77;3.95;;;4.40;90.40;;;;;;5075468;28;20043;-35
2024/01/27 01:19:33;;;;;;;11.02;3.15;;;4.40;90.40;;;;;;5075580;28;20037;-35
2024/01/27 01:21:58;;;;;;;12.25;3.08;;;4.40;90.50;;;;;;5075251;28;20028;-37
2024/01/27 01:24:24;;;;;;;9.85;3.00;;;4.40;90.50;;;;;;5075794;28;20020;-36
2024/01/27 01:26:49;;;;;;;10.68;3.20;;;4.40;90.50;;;;;;5075363;28;20024;-35
2024/01/27 01:29:16;;;;;;;10.70;3.20;;;4.30;90.50;;;;;;5075211;28;20027;-34
2024/01/27 01:31:43;;;;;;;8.63;3.60;;;4.30;90.50;;;;;;5075178;28;20032;-36
2024/01/27 01:34:08;;;;;;;10.77;3.28;;;4.30;90.50;;;;;;5075332;28;20048;-35
2024/01/27 01:36:34;;;;;;;9.52;3.42;;;4.30;90.50;;;;;;5075398;28;20495;-35
2024/01/27 01:38:59;;;;;;;12.68;3.10;;;4.30;90.50;;;;;;5075105;28;20107;-35
2024/01/27 01:41:25;;;;;;;11.38;3.20;;;4.30;90.60;;;;;;5074792;28;20028;-34
2024/01/27 01:43:50;;;;;;;11.35;3.40;;;4.30;90.60;;;;;;5075245;28;20461;-35
2024/01/27 01:46:16;;;;;;;10.82;2.80;;;4.30;90.60;;;;;;5074841;28;20024;-35
2024/01/27 01:48:42;;;;;;;11.48;3.20;;;4.30;90.60;;;;;;5074899;28;20029;-36
2024/01/27 01:51:08;;;;;;;8.73;2.60;;;4.30;90.60;;;;;;5074814;28;20066;-35
2024/01/27 01:53:34;;;;;;;9.75;3.33;;;4.30;90.60;;;;;;5074981;28;20127;-36
2024/01/27 01:56:01;;;;;;;9.95;3.15;;;4.30;90.60;;;;;;5074843;28;20086;-36
2024/01/27 01:58:33;;;;;;;10.57;2.83;;;4.30;90.60;;;;;;5074708;28;20028;-36
2024/01/27 02:01:02;;;;;;;8.00;2.90;;;4.20;90.60;;;;;;5074290;28;20106;-44
2024/01/27 02:03:28;;;;;;;14.30;3.13;;;4.20;90.60;;;;;;5074855;28;20063;-37
2024/01/27 02:05:54;;;;;;;18.77;3.45;;;4.20;90.60;;;;;;5074520;28;20028;-37
2024/01/27 02:08:20;;;;;;;11.82;3.22;;;4.20;90.60;;;;;;5074669;28;20020;-36
2024/01/27 02:10:46;;;;;;;8.55;3.03;;;4.20;90.60;;;;;;5074646;28;20036;-50
2024/01/27 02:13:21;;;;;;;9.45;2.83;;;4.20;90.60;;;;;;5074381;28;20101;-42
2024/01/27 02:15:48;;;;;;;8.05;3.22;;;4.20;90.70;;;;;;5074445;28;20024;-36
2024/01/27 02:18:14;;;;;;;14.52;3.15;;;4.20;90.70;;;;;;5074352;28;20029;-37
2024/01/27 02:20:40;;;;;;;16.35;2.70;;;4.20;90.70;;;;;;5074038;28;20416;-35
2024/01/27 02:23:06;;;;;;;10.85;3.03;;;4.20;90.70;;;;;;5073134;28;20021;-35
2024/01/27 02:25:32;;;;;;;15.27;2.85;;;4.10;90.70;;;;;;5072909;28;20040;-37
2024/01/27 02:27:58;;;;;;;13.10;3.03;;;4.10;90.70;;;;;;5074221;28;20108;-36
2024/01/27 02:30:24;;;;;;;9.23;2.67;;;4.10;90.70;;;;;;5074154;28;20107;-37
2024/01/27 02:32:50;;;;;;;12.70;3.35;;;4.10;90.70;;;;;;5074343;28;20484;-35
2024/01/27 02:35:16;;;;;;;11.30;3.00;;;4.10;90.70;;;;;;5073823;28;20056;-35
2024/01/27 02:37:41;;;;;;;11.38;3.40;;;4.10;90.70;;;;;;5074175;28;20040;-36
2024/01/27 02:40:09;;;;;;;10.02;3.10;;;4.10;90.80;;;;;;5073823;28;20039;-38
2024/01/27 02:42:35;;;;;;;9.68;3.20;;;4.10;90.80;;;;;;5073692;28;20067;-40
2024/01/27 02:45:02;;;;;;;11.55;3.13;;;4.00;90.70;;;;;;5073810;28;20082;-36
2024/01/27 02:47:27;;;;;;;5.65;2.63;;;4.10;90.80;;;;;;5073997;28;20052;-35
2024/01/27 02:49:53;;;;;;;8.82;3.25;;;4.10;90.80;;;;;;5073615;28;20055;-36
2024/01/27 02:52:19;;;;;;;11.57;3.10;;;4.00;90.80;;;;;;5073662;28;20083;-35
2024/01/27 02:54:44;;;;;;;9.57;2.92;;;4.10;90.80;;;;;;5073622;28;20056;-37
2024/01/27 02:57:10;;;;;;;10.25;3.10;;;4.00;90.80;;;;;;5073629;28;20241;-36
2024/01/27 02:59:35;;;;;;;8.32;2.85;;;4.00;90.80;;;;;;5073717;28;20029;-34
2024/01/27 03:02:01;;;;;;;10.00;2.92;;;4.00;90.80;;;;;;5073113;28;20457;-35
2024/01/27 03:04:27;;;;;;;13.75;3.10;;;4.00;90.80;;;;;;5073484;28;20020;-35
2024/01/27 03:06:52;;;;;;;13.90;3.50;;;4.00;90.90;;;;;;5073509;28;20464;-36
2024/01/27 03:09:18;;;;;;;10.25;3.20;;;4.00;90.80;;;;;;5073264;28;20024;-35
2024/01/27 03:11:43;;;;;;;9.35;2.80;;;4.00;90.80;;;;;;5073490;28;20595;-36
2024/01/27 03:14:10;;;;;;;8.50;2.67;;;4.00;90.80;;;;;;5073309;28;20366;-35
2024/01/27 03:16:36;;;;;;;11.95;3.00;;;4.00;90.90;;;;;;5073463;28;20108;-36
2024/01/27 03:19:01;;;;;;;7.25;2.53;;;3.90;90.80;;;;;;5073065;28;20067;-35
2024/01/27 03:21:27;;;;;;;8.90;3.03;;;4.00;90.90;;;;;;5073458;28;20271;-36
2024/01/27 03:23:53;;;;;;;8.32;3.00;;;3.90;90.90;;;;;;5073118;28;20025;-37
2024/01/27 03:26:18;;;;;;;8.52;3.13;;;3.90;90.90;;;;;;5073106;28;20024;-35
2024/01/27 03:28:44;;;;;;;11.30;3.22;;;3.90;90.90;;;;;;5071677;28;20028;-36
2024/01/27 03:31:09;;;;;;;12.07;2.85;;;3.90;90.90;;;;;;5072721;28;20024;-36
2024/01/27 03:33:35;;;;;;;7.75;2.90;;;3.90;90.90;;;;;;5072476;28;20408;-36
2024/01/27 03:36:00;;;;;;;8.98;3.45;;;3.90;90.90;;;;;;5073054;28;20366;-36
2024/01/27 03:38:26;;;;;;;7.85;2.72;;;3.90;90.90;;;;;;5072829;28;20302;-35
2024/01/27 03:40:52;;;;;;;8.63;3.00;;;3.90;90.90;;;;;;5072542;28;20029;-36
2024/01/27 03:43:17;;;;;;;9.02;2.80;;;3.90;90.90;;;;;;5072677;28;20032;-36
2024/01/27 03:45:43;;;;;;;10.90;2.80;;;3.90;91.00;;;;;;5072768;28;20388;-34
2024/01/27 03:48:08;;;;;;;11.38;3.20;;;3.90;91.00;;;;;;5072543;28;20028;-34
2024/01/27 03:50:34;;;;;;;8.20;2.97;;;3.80;91.00;;;;;;5072276;28;20078;-35
2024/01/27 03:52:59;;;;;;;8.43;3.05;;;3.80;91.00;;;;;;5072453;28;20060;-35
2024/01/27 03:55:25;;;;;;;11.52;2.97;;;3.80;91.00;;;;;;5072502;28;20028;-35
2024/01/27 03:57:50;;;;;;;9.95;3.25;;;3.80;91.00;;;;;;5072756;28;20077;-35
2024/01/27 04:00:16;;;;;;;13.93;3.55;;;3.80;91.00;;;;;;5072384;28;20065;-36
2024/01/27 04:02:42;;;;;;;14.73;3.17;;;3.80;91.00;;;;;;5071989;28;20036;-35
2024/01/27 04:05:07;;;;;;;10.45;3.25;;;3.80;91.10;;;;;;5072265;28;20483;-35
2024/01/27 04:07:33;;;;;;;9.43;3.90;;;3.80;91.10;;;;;;5072092;28;20052;-35
2024/01/27 04:09:59;;;;;;;14.35;4.00;;;3.80;91.10;;;;;;5072209;28;20029;-35
2024/01/27 04:12:24;;;;;;;14.20;4.75;;;3.80;91.30;;;;;;5072066;28;20150;-35
2024/01/27 04:14:50;;;;;;;16.80;4.47;;;3.80;91.10;;;;;;5071970;28;20027;-34
2024/01/27 04:17:16;;;;;;;14.30;4.05;;;3.80;91.10;;;;;;5072310;28;20024;-36
2024/01/27 04:19:42;;;;;;;10.13;3.63;;;3.80;91.10;;;;;;5071887;28;20024;-36
2024/01/27 04:22:07;;;;;;;12.98;3.60;;;3.80;91.10;;;;;;5071951;28;20024;-35
2024/01/27 04:24:33;;;;;;;10.20;3.58;;;3.80;91.10;;;;;;5072306;28;20009;-36
2024/01/27 04:26:59;;;;;;;9.13;4.50;;;3.70;91.10;;;;;;5072233;28;20020;-35
2024/01/27 04:29:25;;;;;;;10.77;4.55;;;3.80;91.10;;;;;;5071806;28;20047;-35
2024/01/27 04:31:51;;;;;;;11.25;4.28;;;3.70;91.10;;;;;;5071906;28;20029;-35
2024/01/27 04:34:16;;;;;;;13.35;4.30;;;3.70;91.10;;;;;;5071850;28;20045;-35
2024/01/27 04:36:42;;;;;;;11.95;3.90;;;3.70;91.10;;;;;;5071653;28;20029;-35
2024/01/27 04:39:07;;;;;;;13.98;4.55;;;3.70;91.10;;;;;;5072036;28;20043;-34
2024/01/27 04:41:33;;;;;;;7.05;3.83;;;3.70;91.10;;;;;;5071633;28;20461;-35
2024/01/27 04:43:59;;;;;;;10.85;4.00;;;3.70;91.10;;;;;;5071719;28;20024;-35
2024/01/27 04:46:24;;;;;;;10.57;4.38;;;3.70;91.10;;;;;;5071068;28;20012;-35
2024/01/27 04:48:50;;;;;;;13.25;4.40;;;3.70;91.10;;;;;;5071652;28;20469;-35
2024/01/27 04:51:15;;;;;;;9.60;4.05;;;3.70;91.10;;;;;;5071395;28;20380;-34
2024/01/27 04:53:41;;;;;;;11.35;3.83;;;3.70;91.10;;;;;;5071923;28;20025;-34
2024/01/27 04:56:12;;;;;;;11.93;4.22;;;3.70;91.10;;;;;;5071804;28;20513;-35
2024/01/27 04:58:37;;;;;;;14.35;4.38;;;3.70;91.10;;;;;;5071507;28;20053;-35
2024/01/27 05:01:03;;;;;;;8.38;4.03;;;3.60;91.10;;;;;;5071413;28;20060;-35
2024/01/27 05:03:29;;;;;;;12.57;4.10;;;3.60;91.10;;;;;;5071784;28;20020;-34
2024/01/27 05:05:54;;;;;;;7.47;4.10;;;3.60;91.10;;;;;;5071304;28;20044;-37
2024/01/27 05:08:20;;;;;;;10.05;4.00;;;3.60;91.20;;;;;;5071454;28;20020;-36
2024/01/27 05:10:45;;;;;;;11.60;4.30;;;3.60;91.10;;;;;;5071652;28;20399;-37
2024/01/27 05:13:11;;;;;;;13.55;4.80;;;3.60;91.10;;;;;;5071430;28;20161;-36
2024/01/27 05:15:36;;;;;;;14.02;4.80;;;3.60;91.20;;;;;;5071415;28;20044;-35
2024/01/27 05:18:02;;;;;;;10.93;4.60;;;3.60;91.20;;;;;;5071270;28;20024;-36
2024/01/27 05:20:28;;;;;;;8.38;4.57;;;3.50;91.20;;;;;;5071194;28;20103;-35
2024/01/27 05:22:53;;;;;;;17.05;5.28;;;3.50;91.20;;;;;;5071492;28;20044;-35
2024/01/27 05:25:19;;;;;;;12.32;4.93;;;3.50;91.20;;;;;;5071352;28;20099;-36
2024/01/27 05:27:44;;;;;;;16.42;4.97;;;3.50;91.20;;;;;;5071160;28;20505;-35
2024/01/27 05:30:10;;;;;;;11.40;5.35;;;3.50;91.20;;;;;;5071131;28;20027;-36
2024/01/27 05:32:36;;;;;;;10.90;4.72;;;3.50;91.20;;;;;;5071089;28;20017;-36
2024/01/27 05:35:03;;;;;;;12.55;5.07;;;3.50;91.30;;;;;;5071043;28;20040;-34
2024/01/27 05:37:28;;;;;;;9.90;4.90;;;3.50;91.30;;;;;;5071152;28;20028;-36
2024/01/27 05:39:54;;;;;;;15.50;5.75;;;3.50;91.30;;;;;;5070789;28;20492;-35
2024/01/27 05:42:21;;;;;;;14.95;4.75;;;3.50;91.30;;;;;;5071210;28;20024;-35
2024/01/27 05:44:47;;;;;;;15.93;5.55;;;3.50;91.30;;;;;;5071066;28;20397;-36
2024/01/27 05:47:12;;;;;;;13.25;5.25;;;3.50;91.30;;;;;;5071328;28;20481;-35
2024/01/27 05:49:38;;;;;;;11.90;5.40;;;3.50;91.30;;;;;;5071223;28;20078;-35
2024/01/27 05:52:04;;;;;;;12.48;5.45;;;3.40;91.30;;;;;;5071239;28;20025;-36
2024/01/27 05:54:29;;;;;;;10.73;4.72;;;3.40;91.30;;;;;;5070967;28;20036;-36
2024/01/27 05:56:55;;;;;;;10.63;5.00;;;3.50;91.30;;;;;;5070230;28;20028;-36
2024/01/27 05:59:21;;;;;;;13.10;5.90;;;3.50;91.30;;;;;;5074452;28;20483;-36
2024/01/27 06:01:47;;;;;;;12.30;5.43;;;3.40;91.30;;;;;;5074492;28;20032;-35
2024/01/27 06:04:13;;;;;;;12.43;5.35;;;3.40;91.30;;;;;;5074586;28;20024;-36
2024/01/27 06:06:39;;;;;;;12.27;5.70;;;3.40;91.30;;;;;;5074823;28;20033;-35
2024/01/27 06:09:05;;;;;;;10.23;5.40;;;3.40;91.30;;;;;;5075053;28;20385;-35
2024/01/27 06:11:30;;;;;;;13.48;5.00;;;3.40;91.30;;;;;;5074684;28;20036;-35
2024/01/27 06:13:58;;;;;;;12.20;5.22;;;3.40;91.40;;;;;;5074312;28;20031;-36
2024/01/27 06:16:23;;;;;;;12.00;5.10;;;3.40;91.40;;;;;;5072906;28;20158;-36
2024/01/27 06:18:49;;;;;;;13.48;5.72;;;3.40;91.40;;;;;;5074414;28;20060;-35
2024/01/27 06:21:15;;;;;;;10.70;5.00;;;3.40;91.40;;;;;;5074359;28;20029;-36
2024/01/27 06:23:40;;;;;;;11.35;5.50;;;3.40;91.40;;;;;;5074166;28;20516;-35
2024/01/27 06:26:07;;;;;;;15.90;6.22;;;3.40;91.40;;;;;;5074157;28;20115;-36
2024/01/27 06:28:32;;;;;;;17.67;5.70;;;3.40;91.40;;;;;;5074373;28;20052;-34
2024/01/27 06:30:58;;;;;;;14.48;5.53;;;3.40;91.40;;;;;;5073980;28;20048;-35
2024/01/27 06:33:23;;;;;;;14.38;5.00;;;3.40;91.40;;;;;;5073995;28;20415;-36
2024/01/27 06:35:49;;;;;;;15.35;5.55;;;3.40;91.40;;;;;;5072570;28;20048;-34
2024/01/27 06:38:15;;;;;;;12.55;5.57;;;3.40;91.40;;;;;;5073869;28;20032;-35
2024/01/27 06:40:40;;;;;;;10.80;5.80;;;3.40;91.40;;;;;;5073742;28;20063;-35
2024/01/27 06:43:06;;;;;;;13.57;5.72;;;3.40;91.40;;;;;;5072484;28;20051;-43
2024/01/27 06:45:32;;;;;;;14.20;6.00;;;3.40;91.40;;;;;;5073841;28;20445;-35
2024/01/27 06:47:57;;;;;;;13.02;5.97;;;3.40;91.40;;;;;;5073645;28;20025;-34
2024/01/27 06:50:23;;;;;;;14.30;5.35;;;3.30;91.40;;;;;;5073455;28;20028;-34
2024/01/27 06:52:48;;;;;;;12.70;6.10;;;3.40;91.40;;;;;;5073745;28;20071;-35
2024/01/27 06:55:14;;;;;;;9.68;5.95;;;3.30;91.40;;;;;;5073643;28;20064;-34
2024/01/27 06:57:40;;;;;;;12.80;5.82;;;3.30;91.40;;;;;;5073639;28;20016;-35
2024/01/27 07:00:06;;;;;;;12.45;6.20;;;3.30;91.40;;;;;;5073845;28;20055;-36
2024/01/27 07:02:32;;;;;;;14.00;6.15;;;3.30;91.40;;;;;;5073383;28;20315;-36
2024/01/27 07:04:59;;;;;;;18.90;6.10;;;3.30;91.40;;;;;;5073488;28;20028;-36
2024/01/27 07:07:28;;;;;;;11.50;6.32;;;3.30;91.40;;;;;;5073734;28;20024;-35
2024/01/27 07:09:57;;;;;;;12.50;6.07;;;3.30;91.40;;;;;;5072513;28;20051;-34
2024/01/27 07:12:23;;;;;;;18.05;6.20;;;3.30;91.50;;;;;;5073496;28;20039;-35
2024/01/27 07:14:49;;;;;;;12.15;5.68;;;3.30;91.50;;;;;;5073381;28;20024;-35
2024/01/27 07:17:15;;;;;;;12.70;6.28;;;3.30;91.40;;;;;;5073030;28;20085;-35
2024/01/27 07:19:40;;;;;;;16.45;6.88;;;3.30;91.40;;;;;;5073139;28;20036;-35
2024/01/27 07:22:06;;;;;;;16.23;6.28;;;3.30;91.40;;;;;;5073028;28;20129;-35
2024/01/27 07:24:31;;;;;;;16.10;6.70;;;3.30;91.40;;;;;;5073092;28;20028;-35
2024/01/27 07:27:00;;;;;;;13.82;6.30;;;3.30;91.40;;;;;;5073199;28;20036;-35
2024/01/27 07:29:26;;;;;;;12.05;5.65;;;3.30;91.50;;;;;;5073107;28;20021;-35
2024/01/27 07:31:52;;;;;;;12.88;6.63;;;3.30;91.40;;;;;;5072960;28;20036;-34
2024/01/27 07:34:17;;;;;;;13.20;6.82;;;3.30;91.40;;;;;;5072709;28;20102;-34
2024/01/27 07:36:44;;;;;;;11.85;6.00;;;3.30;91.40;;;;;;5072783;28;20431;-36
2024/01/27 07:39:09;;;;;;;16.95;7.03;;;3.20;91.40;;;;;;5071932;28;20048;-35
2024/01/27 07:41:35;;;;;;;12.95;6.22;;;3.30;91.50;;;;;;5072509;28;20459;-34
2024/01/27 07:44:11;;;;;;;16.98;6.97;;;3.30;91.40;;;;;;5072556;28;20024;-35
2024/01/27 07:46:38;;;;;;;10.68;6.30;;;3.30;91.40;;;;;;5072608;28;20028;-35
2024/01/27 07:49:04;;;;;;;13.77;6.38;;;3.30;91.40;;;;;;5072420;28;20024;-35
2024/01/27 07:51:30;;;;;;;11.93;6.18;;;3.30;91.40;;;;;;5072395;28;20071;-36
2024/01/27 07:53:56;;;;;;;14.52;6.13;;;3.30;91.40;;;;;;5072439;28;20469;-35
2024/01/27 07:56:21;;;;;;;11.57;6.68;;;3.40;91.40;;;;;;5072423;28;20067;-35
2024/01/27 07:58:47;;;;;;;15.27;6.30;;;3.30;91.40;;;;;;5072559;28;20035;-36
2024/01/27 08:01:16;;;;;;;17.10;7.18;;;3.40;91.40;;;;;;5071944;28;20467;-35
2024/01/27 08:03:42;;;;;;;12.23;6.45;;;3.40;91.40;;;;;;5071081;28;20017;-33
2024/01/27 08:06:14;;;;;;;14.02;6.63;;;3.40;91.40;;;;;;5072184;28;20032;-32
2024/01/27 08:08:40;;;;;;;15.30;6.88;;;3.40;91.40;;;;;;5072246;28;20055;-43
2024/01/27 08:11:05;;;;;;;17.50;6.45;;;3.50;91.40;;;;;;5070639;28;20028;-45
2024/01/27 08:13:31;;;;;;;14.52;5.88;;;3.50;91.30;;;;;;5072072;28;20024;-44
2024/01/27 08:15:56;;;;;;;23.70;7.10;;;3.50;91.30;;;;;;5072107;28;20095;-45
2024/01/27 08:18:22;;;;;;;14.45;6.55;;;3.60;91.30;;;;;;5071963;28;20044;-37
2024/01/27 08:20:48;;;;;;;13.20;6.85;;;3.70;91.30;;;;;;5071956;28;20024;-41
2024/01/27 08:23:13;;;;;;;19.90;8.15;;;3.70;91.20;;;;;;5071855;28;20020;-44
2024/01/27 08:25:39;;;;;;;16.80;7.32;;;3.70;91.20;;;;;;5072302;28;20048;-45
2024/01/27 08:28:05;;;;;;;12.50;6.40;;;3.80;91.10;;;;;;5071876;28;20058;-35
2024/01/27 08:30:31;;;;;;;17.02;7.15;;;3.80;91.10;;;;;;5071730;28;20024;-32
2024/01/27 08:32:56;;;;;;;16.55;7.72;;;3.80;91.10;;;;;;5071693;28;20505;-31
2024/01/27 08:35:22;;;;;;;19.60;7.47;;;3.80;91.10;;;;;;5071436;28;20127;-33
2024/01/27 08:37:48;;;;;;;17.75;10.55;;;3.90;91.10;;;;;;5071611;28;20066;-35
2024/01/27 08:40:13;;;;;;;16.52;9.07;;;4.00;91.00;;;;;;5071539;28;20032;-34
2024/01/27 08:42:39;;;;;;;12.05;7.97;;;4.00;91.00;;;;;;5071791;28;20021;-35
2024/01/27 08:45:06;;;;;;;15.88;8.18;;;4.00;91.00;;;;;;5071803;28;20074;-34
2024/01/27 08:47:32;;;;;;;15.90;7.32;;;4.00;90.90;;;;;;5070267;28;20593;-34
2024/01/27 08:49:57;;;;;;;15.75;7.47;;;4.10;90.80;;;;;;5071858;28;20024;-34
2024/01/27 08:52:23;;;;;;;19.42;7.15;;;4.10;90.80;;;;;;5071881;28;20541;-33
2024/01/27 08:54:49;;;;;;;14.32;6.78;;;4.20;90.80;;;;;;5071628;28;20653;-36
2024/01/27 08:57:14;;;;;;;13.98;6.45;;;4.20;90.80;;;;;;5071765;28;20020;-37
2024/01/27 08:59:40;;;;;;;15.80;6.38;;;4.30;90.80;;;;;;5071733;28;20443;-31
2024/01/27 09:02:05;;;;;;;14.65;7.20;;;4.30;90.70;;;;;;5071296;28;20108;-34
2024/01/27 09:04:31;;;;;;;10.45;6.78;;;4.40;90.70;;;;;;5071531;28;20385;-32
2024/01/27 09:06:56;;;;;;;16.13;7.15;;;4.40;90.70;;;;;;5071414;28;20020;-31
2024/01/27 09:09:22;;;;;;;12.48;6.90;;;4.40;90.60;;;;;;5071308;28;20021;-32
2024/01/27 09:11:48;;;;;;;18.70;7.25;;;4.40;90.60;;;;;;5071458;28;20488;-32
2024/01/27 09:14:14;;;;;;;16.05;7.03;;;4.40;90.60;;;;;;5071619;28;20024;-32
2024/01/27 09:16:40;;;;;;;14.65;7.38;;;4.50;90.60;;;;;;5071324;28;20103;-37
2024/01/27 09:19:05;;;;;;;16.60;6.78;;;4.60;90.60;;;;;;5071274;28;20023;-34
2024/01/27 09:21:32;;;;;;;14.60;7.05;;;4.60;90.50;;;;;;5071179;28;20074;-32
2024/01/27 09:23:58;;;;;;;16.75;7.95;;;4.60;90.50;;;;;;5071426;28;20023;-32
2024/01/27 09:26:24;;;;;;;14.98;7.10;;;4.60;90.30;;;;;;5071223;28;20020;-31
2024/01/27 09:28:55;;;;;;;13.88;7.13;;;4.60;90.40;;;;;;5071261;28;20485;-32
2024/01/27 09:31:23;;;;;;;12.95;7.07;;;4.60;90.40;;;;;;5071408;28;20440;-32
2024/01/27 09:33:51;;;;;;;12.63;6.88;;;4.50;90.30;;;;;;5075008;28;20534;-31
2024/01/27 09:36:17;;;;;;;14.73;7.13;;;4.50;90.40;;;;;;5075468;28;20070;-34
2024/01/27 09:38:42;;;;;;;13.32;7.07;;;4.50;90.40;;;;;;5074998;28;20021;-33
2024/01/27 09:41:09;;;;;;;11.88;6.50;;;4.50;90.40;;;;;;5075101;28;20151;-37
2024/01/27 09:43:37;;;;;;;11.73;6.88;;;4.50;90.50;;;;;;5075374;28;20016;-35
2024/01/27 09:46:03;;;;;;;13.27;7.00;;;4.50;90.50;;;;;;5074942;28;20051;-32
2024/01/27 09:48:30;;;;;;;13.75;6.57;;;4.50;90.50;;;;;;5074935;28;20055;-33
2024/01/27 09:50:58;;;;;;;13.18;7.07;;;4.60;90.50;;;;;;5075028;28;20147;-34
2024/01/27 09:53:24;;;;;;;11.75;7.13;;;4.60;90.50;;;;;;5074681;28;20028;-38
2024/01/27 09:55:50;;;;;;;12.10;6.93;;;4.60;90.50;;;;;;5074809;28;20029;-31
2024/01/27 09:58:16;;;;;;;17.15;8.13;;;4.70;90.50;;;;;;5075006;28;20043;-32
2024/01/27 10:00:41;;;;;;;13.90;7.80;;;4.70;90.40;;;;;;5074664;28;20024;-35
2024/01/27 10:03:08;;;;;;;12.80;7.57;;;4.80;90.40;;;;;;5074427;28;20035;-36
2024/01/27 10:05:35;;;;;;;16.17;7.20;;;4.80;90.40;;;;;;5074452;28;20070;-35
2024/01/27 10:08:01;;;;;;;15.48;7.20;;;4.90;90.30;;;;;;5074764;28;20016;-34
2024/01/27 10:10:26;;;;;;;17.30;7.65;;;4.90;90.30;;;;;;5074368;28;20434;-36
2024/01/27 10:12:55;;;;;;;11.07;6.97;;;4.90;90.30;;;;;;5074669;28;20044;-35
2024/01/27 10:15:22;;;;;;;16.33;7.38;;;5.00;90.30;;;;;;5074455;28;20025;-34
2024/01/27 10:17:47;;;;;;;12.40;7.28;;;5.00;90.20;;;;;;5074266;28;20021;-33
2024/01/27 10:20:15;;;;;;;17.58;7.28;;;5.10;90.30;;;;;;5074322;28;20536;-33
2024/01/27 10:22:42;;;;;;;14.00;8.30;;;5.10;90.20;;;;;;5074414;28;20507;-34
2024/01/27 10:25:09;;;;;;;15.93;8.40;;;5.20;90.20;;;;;;5074374;28;20077;-36
2024/01/27 10:27:35;;;;;;;17.20;7.88;;;5.20;90.10;;;;;;5074162;28;20019;-36
2024/01/27 10:30:02;;;;;;;13.50;7.82;;;5.20;90.10;;;;;;5074063;28;20043;-36
2024/01/27 10:32:27;;;;;;;19.00;8.52;;;5.30;90.10;;;;;;5074469;28;20095;-31
2024/01/27 10:35:09;;;;;;;22.85;8.85;;;5.30;90.10;;;;;;5074042;28;20453;-36
2024/01/27 10:37:36;;;;;;;15.82;9.15;;;5.30;90.00;;;;;;5074331;28;20016;-32
2024/01/27 10:40:10;;;;;;;17.67;9.30;;;5.30;90.00;;;;;;5073990;28;20107;-34
2024/01/27 10:42:37;;;;;;;18.02;8.77;;;5.40;90.00;;;;;;5074029;28;20035;-36
2024/01/27 10:45:03;;;;;;;17.60;8.85;;;5.40;90.00;;;;;;5072788;28;20024;-42
2024/01/27 10:47:31;;;;;;;14.38;8.23;;;5.50;90.00;;;;;;5073969;28;20023;-33
2024/01/27 10:50:00;;;;;;;19.05;8.60;;;5.50;90.00;;;;;;5073584;28;20023;-35
2024/01/27 10:52:30;;;;;;;17.13;8.05;;;5.60;89.90;;;;;;5073678;28;20029;-34
2024/01/27 10:55:00;;;;;;;19.88;8.85;;;5.60;89.90;;;;;;5073940;28;20027;-35
2024/01/27 10:57:27;;;;;;;15.95;8.02;;;5.70;89.80;;;;;;5074056;28;20095;-36
2024/01/27 10:59:53;;;;;;;18.58;7.85;;;5.70;89.70;;;;;;5073612;28;20090;-38
2024/01/27 11:02:20;;;;;;;14.77;7.38;;;5.80;89.80;;;;;;5073322;28;20020;-32
2024/01/27 11:04:49;;;;;;;14.82;8.07;;;5.80;89.60;;;;;;5072076;28;20024;-33
2024/01/27 11:07:15;;;;;;;16.60;7.57;;;5.90;89.40;;;;;;5073401;28;20031;-33
2024/01/27 11:09:43;;;;;;;16.77;7.78;;;5.90;89.10;;;;;;5073421;28;20013;-36
2024/01/27 11:12:09;;;;;;;17.80;7.15;;;5.90;89.00;;;;;;5073441;28;20051;-37
2024/01/27 11:14:35;;;;;;;14.52;7.13;;;5.90;88.90;;;;;;5073307;28;20035;-38
2024/01/27 11:17:02;;;;;;;18.95;7.38;;;6.00;88.90;;;;;;5073632;28;20020;-38
2024/01/27 11:19:27;;;;;;;15.15;7.38;;;6.10;88.80;;;;;;5073579;28;20477;-39
2024/01/27 11:22:03;;;;;;;16.15;6.65;;;6.10;88.80;;;;;;5073416;28;20031;-38
2024/01/27 11:24:29;;;;;;;14.75;6.60;;;6.20;88.70;;;;;;5073502;28;20103;-34
2024/01/27 11:27:02;;;;;;;18.10;7.32;;;6.30;88.80;;;;;;5073113;28;20396;-35
2024/01/27 11:29:29;;;;;;;16.40;6.80;;;6.40;88.60;;;;;;5073329;28;20017;-37
2024/01/27 11:31:56;;;;;;;15.63;7.43;;;6.40;88.50;;;;;;5073232;28;20032;-36
2024/01/27 11:34:21;;;;;;;11.85;7.22;;;6.40;88.50;;;;;;5072958;28;20535;-32
2024/01/27 11:36:47;;;;;;;15.90;6.93;;;6.50;88.10;;;;;;5072846;28;20095;-36
2024/01/27 11:39:30;;;;;;;16.58;7.15;;;6.60;88.20;;;;;;5072728;28;20531;-46
2024/01/27 11:42:16;;;;;;;17.40;7.07;;;6.60;88.00;;;;;;5073015;28;20103;-37
2024/01/27 11:44:42;;;;;;;13.80;6.10;;;6.70;88.00;;;;;;5072746;28;20028;-36
2024/01/27 11:47:18;;;;;;;12.10;6.28;;;6.80;87.90;;;;;;5072564;28;20109;-35
2024/01/27 11:49:54;;;;;;;17.23;6.88;;;6.80;87.90;;;;;;5072389;28;20032;-35
2024/01/27 11:52:21;;;;;;;15.60;6.90;;;6.90;87.60;;;;;;5072492;28;20461;-35
2024/01/27 11:54:53;;;;;;;17.52;6.80;;;6.90;88.00;;;;;;5072223;28;20016;-34
2024/01/27 11:57:19;;;;;;;15.88;6.30;;;6.90;87.10;;;;;;5072810;28;20044;-33
2024/01/27 11:59:44;;;;;;;17.45;7.38;;;7.00;86.90;;;;;;5072250;28;20021;-39
2024/01/27 12:02:10;;;;;;;12.45;6.30;;;7.00;86.60;;;;;;5072337;28;20103;-38
2024/01/27 12:04:36;;;;;;;13.55;5.97;;;7.00;86.60;;;;;;5072220;28;20025;-37
2024/01/27 12:07:03;;;;;;;14.95;6.43;;;7.10;86.30;;;;;;5072401;28;20028;-37
2024/01/27 12:09:28;;;;;;;13.00;6.22;;;7.10;86.10;;;;;;5072465;28;20017;-36
2024/01/27 12:11:54;;;;;;;15.55;6.05;;;7.10;85.90;;;;;;5072552;28;20027;-35
2024/01/27 12:14:19;;;;;;;17.90;6.65;;;7.10;85.60;;;;;;5072194;28;20477;-32
2024/01/27 12:16:47;;;;;;;13.88;5.63;;;7.10;85.70;;;;;;5071980;28;20388;-40
2024/01/27 12:19:13;;;;;;;14.40;5.80;;;7.20;85.60;;;;;;5072053;28;20024;-35
2024/01/27 12:21:46;;;;;;;17.20;5.53;;;7.20;85.60;;;;;;5072198;28;20047;-36
2024/01/27 12:24:16;;;;;;;14.43;4.93;;;7.30;85.40;;;;;;5072265;28;20028;-34
2024/01/27 12:26:42;;;;;;;16.25;5.60;;;7.30;85.20;;;;;;5072181;28;20031;-31
2024/01/27 12:29:08;;;;;;;18.00;5.88;;;7.40;85.20;;;;;;5072211;28;20008;-32
2024/01/27 12:31:33;;;;;;;11.15;4.32;;;7.40;84.70;;;;;;5072064;28;20089;-37
2024/01/27 12:33:59;;;;;;;11.95;5.05;;;7.40;84.70;;;;;;5072075;28;20048;-31
2024/01/27 12:36:25;;;;;;;12.43;4.63;;;7.50;84.50;;;;;;5072064;28;20052;-34
2024/01/27 12:38:58;;;;;;;11.65;4.82;;;7.50;85.20;;;;;;5072458;28;20027;-33
2024/01/27 12:41:28;;;;;;;8.93;5.20;;;7.50;84.20;;;;;;5071834;28;20021;-38
2024/01/27 12:43:54;;;;;;;13.57;5.13;;;7.60;84.20;;;;;;5072368;28;20017;-35